createdAt,value
2022-10-02T00:00:41.162Z,12.95
2022-10-02T00:01:59.097Z,12.95
2022-10-02T00:03:16.979Z,12.98
2022-10-02T00:04:33.701Z,12.99
2022-10-02T00:05:51.570Z,12.95
2022-10-02T00:07:07.969Z,12.96
2022-10-02T00:08:24.497Z,12.96
2022-10-02T00:09:42.301Z,12.91
2022-10-02T00:10:58.950Z,12.90
2022-10-02T00:12:16.815Z,12.93
2022-10-02T00:13:34.624Z,12.90
2022-10-02T00:14:52.460Z,12.95
2022-10-02T00:16:10.352Z,12.95
2022-10-02T00:17:30.192Z,12.96
2022-10-02T00:18:48.016Z,12.99
2022-10-02T00:20:05.839Z,12.96
2022-10-02T00:21:23.684Z,12.93
2022-10-02T00:22:40.064Z,12.99
2022-10-02T00:23:56.720Z,12.98
2022-10-02T00:25:14.554Z,12.99
2022-10-02T00:26:35.042Z,12.99
2022-10-02T00:27:53.016Z,12.99
2022-10-02T00:29:10.825Z,12.99
2022-10-02T00:30:27.496Z,12.96
2022-10-02T00:31:43.892Z,12.98
2022-10-02T00:33:00.256Z,12.96
2022-10-02T00:34:16.616Z,12.98
2022-10-02T00:35:33.015Z,12.98
2022-10-02T00:36:49.669Z,13.02
2022-10-02T00:38:06.049Z,12.99
2022-10-02T00:39:23.869Z,13.01
2022-10-02T00:40:40.259Z,13.04
2022-10-02T00:41:58.091Z,13.01
2022-10-02T00:43:14.748Z,13.04
2022-10-02T00:44:31.148Z,13.04
2022-10-02T00:45:47.590Z,13.04
2022-10-02T00:47:04.039Z,13.02
2022-10-02T00:48:20.411Z,13.04
2022-10-02T00:49:37.055Z,12.98
2022-10-02T00:50:54.889Z,13.01
2022-10-02T00:52:11.270Z,13.02
2022-10-02T00:53:29.092Z,13.01
2022-10-02T00:54:46.941Z,13.01
2022-10-02T00:56:05.078Z,13.04
2022-10-02T00:57:25.373Z,13.08
2022-10-02T00:58:41.746Z,13.05
2022-10-02T00:59:58.144Z,13.06
2022-10-02T01:01:14.558Z,13.06
2022-10-02T01:02:31.259Z,13.08
2022-10-02T01:03:49.161Z,13.08
2022-10-02T01:05:05.528Z,13.13
2022-10-02T01:06:21.908Z,13.08
2022-10-02T01:07:39.206Z,13.08
2022-10-02T01:08:57.333Z,13.08
2022-10-02T01:10:13.698Z,13.06
2022-10-02T01:11:30.076Z,13.08
2022-10-02T01:12:47.926Z,13.09
2022-10-02T01:14:05.757Z,13.06
2022-10-02T01:15:23.847Z,13.09
2022-10-02T01:16:40.291Z,13.08
2022-10-02T01:17:56.688Z,13.06
2022-10-02T01:19:14.520Z,13.11
2022-10-02T01:20:34.688Z,13.11
2022-10-02T01:21:51.342Z,13.13
2022-10-02T01:23:07.719Z,13.13
2022-10-02T01:24:24.100Z,13.16
2022-10-02T01:25:40.469Z,13.16
2022-10-02T01:26:56.851Z,13.20
2022-10-02T01:28:15.591Z,13.26
2022-10-02T01:29:31.963Z,13.29
2022-10-02T01:30:48.322Z,13.38
2022-10-02T01:32:06.164Z,13.36
2022-10-02T01:33:22.556Z,13.43
2022-10-02T01:34:39.195Z,13.39
2022-10-02T01:35:55.554Z,13.45
2022-10-02T01:37:13.391Z,13.47
2022-10-02T01:38:31.223Z,13.49
2022-10-02T01:39:47.614Z,13.53
2022-10-02T01:41:04.260Z,13.53
2022-10-02T01:42:20.636Z,13.54
2022-10-02T01:43:37.016Z,13.55
2022-10-02T01:44:54.844Z,13.54
2022-10-02T01:46:11.292Z,13.53
2022-10-02T01:47:28.018Z,13.54
2022-10-02T01:48:44.373Z,13.54
2022-10-02T01:50:02.192Z,13.57
2022-10-02T01:51:18.585Z,13.55
2022-10-02T01:52:36.447Z,13.58
2022-10-02T01:53:53.109Z,13.57
2022-10-02T01:55:10.948Z,13.64
2022-10-02T01:56:28.788Z,13.60
2022-10-02T01:57:45.170Z,13.63
2022-10-02T01:59:03.000Z,13.67
2022-10-02T02:00:19.655Z,13.64
2022-10-02T02:01:36.064Z,13.65
2022-10-02T02:02:53.889Z,13.60
2022-10-02T02:04:10.253Z,13.61
2022-10-02T02:05:28.090Z,13.63
2022-10-02T02:06:44.758Z,13.65
2022-10-02T02:08:01.122Z,13.61
2022-10-02T02:09:17.522Z,13.64
2022-10-02T02:10:33.901Z,13.64
2022-10-02T02:11:50.340Z,13.65
2022-10-02T02:13:06.983Z,13.65
2022-10-02T02:14:24.803Z,13.65
2022-10-02T02:15:41.183Z,13.65
2022-10-02T02:16:57.634Z,13.64
2022-10-02T02:18:14.015Z,13.65
2022-10-02T02:19:32.114Z,13.72
2022-10-02T02:20:48.488Z,13.65
2022-10-02T02:22:04.890Z,13.67
2022-10-02T02:23:23.211Z,13.65
2022-10-02T02:24:39.597Z,13.64
2022-10-02T02:25:56.224Z,13.71
2022-10-02T02:27:12.617Z,13.67
2022-10-02T02:28:30.520Z,13.68
2022-10-02T02:29:46.867Z,13.68
2022-10-02T02:31:04.717Z,13.68
2022-10-02T02:32:21.380Z,13.65
2022-10-02T02:33:39.218Z,13.68
2022-10-02T02:34:55.569Z,13.65
2022-10-02T02:36:13.512Z,13.68
2022-10-02T02:37:29.869Z,13.72
2022-10-02T02:38:46.547Z,13.68
2022-10-02T02:40:04.361Z,13.71
2022-10-02T02:41:20.771Z,13.73
2022-10-02T02:42:37.130Z,13.72
2022-10-02T02:43:53.512Z,13.75
2022-10-02T02:45:10.161Z,13.72
2022-10-02T02:46:26.560Z,13.72
2022-10-02T02:47:42.929Z,13.75
2022-10-02T02:49:00.752Z,13.78
2022-10-02T02:50:17.114Z,13.79
2022-10-02T02:51:33.793Z,13.80
2022-10-02T02:52:50.157Z,13.76
2022-10-02T02:54:07.984Z,13.79
2022-10-02T02:55:24.348Z,13.82
2022-10-02T02:56:42.214Z,13.85
2022-10-02T02:57:58.859Z,13.85
2022-10-02T02:59:15.231Z,13.83
2022-10-02T03:00:31.621Z,13.83
2022-10-02T03:01:48.033Z,13.83
2022-10-02T03:03:04.368Z,13.82
2022-10-02T03:04:21.054Z,13.83
2022-10-02T03:05:37.427Z,13.83
2022-10-02T03:06:53.809Z,13.83
2022-10-02T03:08:11.632Z,13.82
2022-10-02T03:09:27.999Z,13.83
2022-10-02T03:10:46.138Z,13.80
2022-10-02T03:12:02.520Z,13.79
2022-10-02T03:13:18.871Z,13.79
2022-10-02T03:14:36.709Z,13.80
2022-10-02T03:15:53.162Z,13.79
2022-10-02T03:17:09.821Z,13.80
2022-10-02T03:18:26.194Z,13.79
2022-10-02T03:19:42.571Z,13.83
2022-10-02T03:20:58.976Z,13.82
2022-10-02T03:22:16.814Z,13.86
2022-10-02T03:23:33.451Z,13.82
2022-10-02T03:24:51.284Z,13.85
2022-10-02T03:26:07.673Z,13.88
2022-10-02T03:27:24.060Z,13.91
2022-10-02T03:28:56.767Z,13.94
2022-10-02T03:30:01.636Z,13.91
2022-10-02T03:31:18.115Z,13.93
2022-10-02T03:32:34.459Z,13.94
2022-10-02T03:33:52.293Z,13.98
2022-10-02T03:35:08.663Z,13.98
2022-10-02T03:36:26.826Z,13.96
2022-10-02T03:37:44.717Z,14.01
2022-10-02T03:39:23.578Z,13.98
2022-10-02T03:40:24.314Z,14.03
2022-10-02T03:41:42.175Z,14.01
2022-10-02T03:42:58.823Z,14.03
2022-10-02T03:44:15.199Z,14.05
2022-10-02T03:45:51.389Z,14.09
2022-10-02T03:46:52.880Z,14.08
2022-10-02T03:48:09.249Z,14.09
2022-10-02T03:49:25.945Z,14.11
2022-10-02T03:50:42.320Z,14.13
2022-10-02T03:51:58.716Z,14.11
2022-10-02T03:53:16.533Z,14.15
2022-10-02T03:54:32.902Z,14.15
2022-10-02T03:55:49.551Z,14.19
2022-10-02T03:57:05.953Z,14.23
2022-10-02T03:58:22.302Z,14.23
2022-10-02T03:59:40.143Z,14.23
2022-10-02T04:00:57.965Z,14.21
2022-10-02T04:02:16.114Z,14.26
2022-10-02T04:03:32.535Z,14.23
2022-10-02T04:04:48.891Z,14.27
2022-10-02T04:06:06.725Z,14.26
2022-10-02T04:07:23.138Z,14.27
2022-10-02T04:08:39.774Z,14.31
2022-10-02T04:09:56.166Z,14.26
2022-10-02T04:11:13.977Z,14.26
2022-10-02T04:12:32.327Z,14.22
2022-10-02T04:13:48.687Z,14.22
2022-10-02T04:15:05.349Z,14.21
2022-10-02T04:16:21.757Z,14.19
2022-10-02T04:17:39.626Z,14.18
2022-10-02T04:18:55.982Z,14.21
2022-10-02T04:20:14.119Z,14.19
2022-10-02T04:21:30.756Z,14.19
2022-10-02T04:22:47.150Z,14.19
2022-10-02T04:24:04.971Z,14.26
2022-10-02T04:25:21.409Z,14.16
2022-10-02T04:26:38.018Z,14.18
2022-10-02T04:27:54.848Z,14.18
2022-10-02T04:29:12.640Z,14.15
2022-10-02T04:30:30.525Z,14.18
2022-10-02T04:31:48.433Z,14.13
2022-10-02T04:33:06.266Z,14.15
2022-10-02T04:34:22.924Z,14.16
2022-10-02T04:35:39.462Z,14.21
2022-10-02T04:36:57.282Z,14.18
2022-10-02T04:38:15.119Z,14.21
2022-10-02T04:39:32.957Z,14.23
2022-10-02T04:40:49.698Z,14.21
2022-10-02T04:42:06.066Z,14.23
2022-10-02T04:43:23.896Z,14.23
2022-10-02T04:44:40.260Z,14.27
2022-10-02T04:45:58.258Z,14.26
2022-10-02T04:47:14.998Z,14.22
2022-10-02T04:48:32.823Z,14.26
2022-10-02T04:49:49.207Z,14.23
2022-10-02T04:51:07.076Z,14.26
2022-10-02T04:52:23.428Z,14.27
2022-10-02T04:53:40.080Z,14.26
2022-10-02T04:54:57.927Z,14.28
2022-10-02T04:56:15.768Z,14.26
2022-10-02T04:57:32.129Z,14.28
2022-10-02T04:58:52.417Z,14.28
2022-10-02T05:00:10.551Z,14.28
2022-10-02T05:01:28.382Z,14.30
2022-10-02T05:02:46.190Z,14.28
2022-10-02T05:04:04.277Z,14.30
2022-10-02T05:05:21.071Z,14.28
2022-10-02T05:06:39.112Z,14.30
2022-10-02T05:07:57.032Z,14.30
2022-10-02T05:09:14.907Z,14.30
2022-10-02T05:10:32.714Z,14.28
2022-10-02T05:11:49.374Z,14.27
2022-10-02T05:13:05.765Z,14.31
2022-10-02T05:14:23.595Z,14.30
2022-10-02T05:15:41.408Z,14.26
2022-10-02T05:16:57.784Z,14.26
2022-10-02T05:18:17.867Z,14.31
2022-10-02T05:19:34.510Z,14.30
2022-10-02T05:20:50.858Z,14.30
2022-10-02T05:22:07.243Z,14.30
2022-10-02T05:23:23.650Z,14.30
2022-10-02T05:24:40.309Z,14.30
2022-10-02T05:25:56.767Z,14.28
2022-10-02T05:27:14.609Z,14.27
2022-10-02T05:28:31.017Z,14.27
2022-10-02T05:29:48.841Z,14.22
2022-10-02T05:31:07.031Z,14.27
2022-10-02T05:32:24.850Z,14.27
2022-10-02T05:33:45.985Z,14.22
2022-10-02T05:35:03.897Z,14.22
2022-10-02T05:36:20.299Z,14.27
2022-10-02T05:37:36.958Z,14.27
2022-10-02T05:38:54.810Z,14.30
2022-10-02T05:40:11.182Z,14.27
2022-10-02T05:41:29.001Z,14.30
2022-10-02T05:42:46.888Z,14.31
2022-10-02T05:44:04.981Z,14.36
2022-10-02T05:45:21.370Z,14.34
2022-10-02T05:46:39.599Z,14.33
2022-10-02T05:47:56.310Z,14.31
2022-10-02T05:49:12.674Z,14.33
2022-10-02T05:50:30.784Z,14.28
2022-10-02T05:51:47.145Z,14.28
2022-10-02T05:53:04.986Z,14.30
2022-10-02T05:54:21.371Z,14.30
2022-10-02T05:55:39.212Z,14.31
2022-10-02T05:56:57.316Z,14.34
2022-10-02T05:58:15.177Z,14.36
2022-10-02T05:59:31.545Z,14.33
2022-10-02T06:00:49.417Z,14.34
2022-10-02T06:02:05.808Z,14.34
2022-10-02T06:03:23.975Z,14.34
2022-10-02T06:04:41.790Z,14.33
2022-10-02T06:05:58.168Z,14.33
2022-10-02T06:07:16.009Z,14.31
2022-10-02T06:08:32.409Z,14.30
2022-10-02T06:09:50.028Z,14.30
2022-10-02T06:11:07.811Z,14.27
2022-10-02T06:12:25.641Z,14.28
2022-10-02T06:13:43.576Z,14.31
2022-10-02T06:15:01.398Z,14.28
2022-10-02T06:16:18.094Z,14.34
2022-10-02T06:17:34.453Z,14.30
2022-10-02T06:18:52.323Z,14.34
2022-10-02T06:20:10.142Z,14.31
2022-10-02T06:21:27.982Z,14.34
2022-10-02T06:22:44.654Z,14.38
2022-10-02T06:24:02.483Z,14.40
2022-10-02T06:25:20.313Z,14.40
2022-10-02T06:26:38.605Z,14.41
2022-10-02T06:27:56.822Z,14.40
2022-10-02T06:29:18.771Z,14.41
2022-10-02T06:30:36.126Z,14.44
2022-10-02T06:31:54.023Z,14.45
2022-10-02T06:33:10.455Z,14.40
2022-10-02T06:34:26.879Z,14.40
2022-10-02T06:35:43.245Z,14.40
2022-10-02T06:37:01.077Z,14.40
2022-10-02T06:38:17.476Z,14.38
2022-10-02T06:39:35.317Z,14.38
2022-10-02T06:40:51.967Z,14.44
2022-10-02T06:42:09.799Z,14.37
2022-10-02T06:43:27.662Z,14.36
2022-10-02T06:44:45.507Z,14.34
2022-10-02T06:46:01.961Z,14.34
2022-10-02T06:47:20.068Z,14.37
2022-10-02T06:48:36.461Z,14.36
2022-10-02T06:49:54.294Z,14.38
2022-10-02T06:51:12.101Z,14.38
2022-10-02T06:52:32.233Z,14.38
2022-10-02T06:53:51.212Z,14.44
2022-10-02T06:55:09.073Z,14.41
2022-10-02T06:56:26.886Z,14.44
2022-10-02T06:57:43.287Z,14.49
2022-10-02T06:59:01.443Z,14.51
2022-10-02T07:00:19.280Z,14.52
2022-10-02T07:01:37.105Z,14.55
2022-10-02T07:02:53.557Z,14.64
2022-10-02T07:04:11.394Z,14.63
2022-10-02T07:05:28.048Z,14.67
2022-10-02T07:06:45.868Z,14.70
2022-10-02T07:08:03.956Z,14.66
2022-10-02T07:09:21.780Z,14.69
2022-10-02T07:10:39.614Z,14.70
2022-10-02T07:11:56.265Z,14.70
2022-10-02T07:13:12.666Z,14.67
2022-10-02T07:14:30.486Z,14.73
2022-10-02T07:15:48.299Z,14.73
2022-10-02T07:17:06.119Z,14.78
2022-10-02T07:18:24.251Z,14.71
2022-10-02T07:19:42.071Z,14.71
2022-10-02T07:20:59.909Z,14.70
2022-10-02T07:22:42.761Z,14.66
2022-10-02T07:23:40.443Z,14.70
2022-10-02T07:24:58.572Z,14.69
2022-10-02T07:26:16.410Z,14.67
2022-10-02T07:27:34.224Z,14.69
2022-10-02T07:28:50.604Z,14.73
2022-10-02T07:30:08.454Z,14.73
2022-10-02T07:31:25.149Z,14.73
2022-10-02T07:32:41.515Z,14.78
2022-10-02T07:33:59.359Z,14.73
2022-10-02T07:35:17.245Z,14.71
2022-10-02T07:36:35.362Z,14.73
2022-10-02T07:37:52.227Z,14.77
2022-10-02T07:39:10.059Z,14.77
2022-10-02T07:40:27.897Z,14.82
2022-10-02T07:41:45.750Z,14.82
2022-10-02T07:43:03.567Z,14.78
2022-10-02T07:44:20.231Z,14.83
2022-10-02T07:45:38.120Z,14.83
2022-10-02T07:46:55.929Z,14.87
2022-10-02T07:48:13.780Z,14.89
2022-10-02T07:49:31.629Z,14.89
2022-10-02T07:50:49.780Z,14.87
2022-10-02T07:52:07.612Z,14.90
2022-10-02T07:53:25.511Z,14.95
2022-10-02T07:54:43.362Z,14.96
2022-10-02T07:56:01.214Z,14.93
2022-10-02T07:57:20.059Z,14.93
2022-10-02T07:58:37.903Z,14.99
2022-10-02T07:59:55.751Z,14.99
2022-10-02T08:01:13.643Z,15.01
2022-10-02T08:02:31.533Z,15.03
2022-10-02T08:03:48.213Z,15.03
2022-10-02T08:05:06.035Z,15.04
2022-10-02T08:06:23.895Z,15.01
2022-10-02T08:07:41.717Z,15.05
2022-10-02T08:08:59.551Z,15.01
2022-10-02T08:10:17.655Z,15.05
2022-10-02T08:11:35.495Z,15.04
2022-10-02T08:12:53.319Z,15.05
2022-10-02T08:14:11.157Z,15.03
2022-10-02T08:15:29.009Z,15.01
2022-10-02T08:16:45.718Z,14.97
2022-10-02T08:18:22.780Z,14.96
2022-10-02T08:19:24.729Z,15.03
2022-10-02T08:20:41.151Z,15.03
2022-10-02T08:21:57.528Z,15.10
2022-10-02T08:23:14.172Z,15.14
2022-10-02T08:24:32.010Z,15.22
2022-10-02T08:25:48.427Z,15.32
2022-10-02T08:27:06.296Z,15.52
2022-10-02T08:28:24.225Z,15.72
2022-10-02T08:29:40.885Z,15.85
2022-10-02T08:30:59.062Z,16.10
2022-10-02T08:32:16.950Z,16.36
2022-10-02T08:33:34.778Z,16.52
2022-10-02T08:34:52.634Z,16.55
2022-10-02T08:36:09.293Z,16.61
2022-10-02T08:37:27.664Z,16.61
2022-10-02T08:38:45.484Z,16.69
2022-10-02T08:40:01.937Z,16.64
2022-10-02T08:41:19.768Z,16.70
2022-10-02T08:42:36.466Z,16.72
2022-10-02T08:43:54.290Z,16.67
2022-10-02T08:45:23.040Z,16.64
2022-10-02T08:46:43.320Z,16.62
2022-10-02T08:48:01.168Z,16.61
2022-10-02T08:49:19.240Z,16.59
2022-10-02T08:50:37.108Z,16.59
2022-10-02T08:51:53.496Z,16.64
2022-10-02T08:53:11.347Z,16.61
2022-10-02T08:54:29.178Z,16.67
2022-10-02T08:55:47.340Z,16.67
2022-10-02T08:57:05.166Z,16.67
2022-10-02T08:58:23.009Z,16.65
2022-10-02T08:59:40.876Z,16.69
2022-10-02T09:00:58.831Z,16.67
2022-10-02T09:02:15.567Z,16.61
2022-10-02T09:03:33.371Z,16.62
2022-10-02T09:04:51.242Z,16.59
2022-10-02T09:06:09.134Z,16.64
2022-10-02T09:07:28.305Z,16.65
2022-10-02T09:08:46.475Z,16.61
2022-10-02T09:10:04.305Z,16.58
2022-10-02T09:11:22.177Z,16.61
2022-10-02T09:12:40.045Z,16.57
2022-10-02T09:13:57.879Z,16.62
2022-10-02T09:15:16.001Z,16.82
2022-10-02T09:16:34.349Z,16.88
2022-10-02T09:17:52.447Z,16.87
2022-10-02T09:19:10.286Z,17.01
2022-10-02T09:20:28.118Z,17.09
2022-10-02T09:21:46.239Z,17.07
2022-10-02T09:23:04.093Z,17.09
2022-10-02T09:24:21.928Z,17.02
2022-10-02T09:25:39.749Z,17.02
2022-10-02T09:26:57.598Z,16.97
2022-10-02T09:28:15.783Z,16.95
2022-10-02T09:29:33.639Z,16.95
2022-10-02T09:30:50.007Z,16.91
2022-10-02T09:32:07.880Z,16.92
2022-10-02T09:33:25.692Z,16.92
2022-10-02T09:34:42.353Z,16.88
2022-10-02T09:36:00.179Z,16.83
2022-10-02T09:37:18.059Z,16.84
2022-10-02T09:38:39.102Z,16.88
2022-10-02T09:39:57.616Z,16.87
2022-10-02T09:41:14.262Z,16.90
2022-10-02T09:42:32.111Z,16.94
2022-10-02T09:43:48.495Z,16.84
2022-10-02T09:45:06.326Z,16.83
2022-10-02T09:46:24.147Z,16.91
2022-10-02T09:47:40.814Z,17.06
2022-10-02T09:48:58.756Z,17.09
2022-10-02T09:50:16.598Z,17.10
2022-10-02T09:51:34.429Z,17.12
2022-10-02T09:52:50.824Z,17.17
2022-10-02T09:54:09.209Z,17.14
2022-10-02T09:55:25.608Z,17.10
2022-10-02T09:56:43.451Z,17.07
2022-10-02T09:57:59.893Z,17.02
2022-10-02T09:59:17.702Z,16.97
2022-10-02T10:00:34.376Z,16.87
2022-10-02T10:01:50.844Z,16.87
2022-10-02T10:03:08.671Z,16.82
2022-10-02T10:04:33.795Z,16.80
2022-10-02T10:05:49.201Z,16.82
2022-10-02T10:07:07.344Z,16.84
2022-10-02T10:08:23.742Z,16.80
2022-10-02T10:09:40.114Z,16.83
2022-10-02T10:10:57.963Z,16.84
2022-10-02T10:12:15.806Z,16.79
2022-10-02T10:13:33.926Z,16.82
2022-10-02T10:14:50.316Z,16.80
2022-10-02T10:16:08.244Z,16.77
2022-10-02T10:17:26.206Z,16.80
2022-10-02T10:18:44.047Z,16.74
2022-10-02T10:20:00.697Z,16.73
2022-10-02T10:21:18.538Z,16.79
2022-10-02T10:22:36.397Z,16.83
2022-10-02T10:23:54.237Z,16.83
2022-10-02T10:25:12.061Z,16.77
2022-10-02T10:26:28.730Z,16.79
2022-10-02T10:27:46.600Z,16.77
2022-10-02T10:29:04.411Z,16.77
2022-10-02T10:30:22.239Z,16.80
2022-10-02T10:31:40.598Z,16.94
2022-10-02T10:32:59.024Z,16.98
2022-10-02T10:34:16.872Z,16.95
2022-10-02T10:35:34.685Z,17.02
2022-10-02T10:36:52.531Z,17.07
2022-10-02T10:38:10.373Z,17.13
2022-10-02T10:39:28.515Z,17.19
2022-10-02T10:40:46.344Z,17.25
2022-10-02T10:42:04.209Z,17.22
2022-10-02T10:43:23.698Z,17.22
2022-10-02T10:44:41.545Z,17.25
2022-10-02T10:45:59.437Z,17.25
2022-10-02T10:47:17.327Z,17.25
2022-10-02T10:48:35.149Z,17.30
2022-10-02T10:49:53.007Z,17.28
2022-10-02T10:51:11.150Z,17.32
2022-10-02T10:52:28.988Z,17.54
2022-10-02T10:53:46.810Z,17.81
2022-10-02T10:55:04.680Z,17.94
2022-10-02T10:56:22.550Z,18.20
2022-10-02T10:57:39.219Z,18.52
2022-10-02T10:58:57.047Z,18.54
2022-10-02T11:00:14.903Z,18.79
2022-10-02T11:01:33.808Z,19.19
2022-10-02T11:02:51.686Z,19.49
2022-10-02T11:04:09.806Z,19.84
2022-10-02T11:05:27.690Z,19.94
2022-10-02T11:06:46.064Z,19.94
2022-10-02T11:08:04.036Z,19.93
2022-10-02T11:09:22.028Z,20.00
2022-10-02T11:10:38.700Z,20.23
2022-10-02T11:11:56.548Z,20.36
2022-10-02T11:13:14.415Z,20.30
2022-10-02T11:14:32.259Z,20.09
2022-10-02T11:15:53.879Z,19.96
2022-10-02T11:17:11.724Z,19.67
2022-10-02T11:18:29.559Z,19.49
2022-10-02T11:19:47.435Z,19.39
2022-10-02T11:21:05.296Z,19.34
2022-10-02T11:22:23.122Z,19.30
2022-10-02T11:23:41.452Z,19.23
2022-10-02T11:24:59.323Z,19.45
2022-10-02T11:26:18.201Z,19.70
2022-10-02T11:27:34.862Z,19.90
2022-10-02T11:28:52.708Z,19.79
2022-10-02T11:30:10.631Z,19.72
2022-10-02T11:31:28.479Z,19.68
2022-10-02T11:32:46.287Z,19.70
2022-10-02T11:34:04.134Z,20.17
2022-10-02T11:35:21.977Z,20.63
2022-10-02T11:36:39.816Z,21.03
2022-10-02T11:38:00.616Z,21.40
2022-10-02T11:39:23.720Z,21.51
2022-10-02T11:40:41.589Z,21.63
2022-10-02T11:41:59.466Z,21.63
2022-10-02T11:43:17.300Z,21.37
2022-10-02T11:44:35.130Z,21.13
2022-10-02T11:45:53.038Z,20.92
2022-10-02T11:47:10.841Z,20.75
2022-10-02T11:48:28.704Z,20.88
2022-10-02T11:49:46.823Z,20.88
2022-10-02T11:51:04.655Z,21.14
2022-10-02T11:52:22.505Z,21.18
2022-10-02T11:53:40.364Z,21.20
2022-10-02T11:54:58.219Z,21.51
2022-10-02T11:56:16.326Z,21.56
2022-10-02T11:57:33.648Z,21.47
2022-10-02T11:58:51.516Z,21.38
2022-10-02T12:00:07.909Z,21.51
2022-10-02T12:01:25.760Z,21.41
2022-10-02T12:02:42.482Z,21.38
2022-10-02T12:04:00.561Z,21.23
2022-10-02T12:05:18.411Z,21.11
2022-10-02T12:06:36.231Z,21.01
2022-10-02T12:07:54.589Z,20.97
2022-10-02T12:09:12.694Z,20.88
2022-10-02T12:10:30.553Z,20.75
2022-10-02T12:11:48.383Z,20.50
2022-10-02T12:13:06.230Z,20.07
2022-10-02T12:14:24.087Z,19.82
2022-10-02T12:15:41.925Z,19.68
2022-10-02T12:16:59.799Z,19.53
2022-10-02T12:18:21.674Z,19.39
2022-10-02T12:19:39.862Z,19.37
2022-10-02T12:20:56.528Z,19.34
2022-10-02T12:22:14.372Z,19.34
2022-10-02T12:23:32.207Z,19.31
2022-10-02T12:24:54.096Z,19.15
2022-10-02T12:26:12.714Z,19.01
2022-10-02T12:27:30.531Z,18.91
2022-10-02T12:28:48.383Z,18.79
2022-10-02T12:30:06.232Z,18.71
2022-10-02T12:31:24.163Z,18.64
2022-10-02T12:32:40.804Z,18.68
2022-10-02T12:33:58.623Z,18.64
2022-10-02T12:35:16.494Z,18.75
2022-10-02T12:36:34.323Z,18.81
2022-10-02T12:37:52.173Z,18.83
2022-10-02T12:39:10.093Z,18.76
2022-10-02T12:40:27.914Z,18.81
2022-10-02T12:41:44.288Z,18.82
2022-10-02T12:43:02.135Z,18.93
2022-10-02T12:44:20.506Z,19.04
2022-10-02T12:45:38.391Z,19.30
2022-10-02T12:46:56.209Z,19.44
2022-10-02T12:48:14.615Z,19.75
2022-10-02T12:49:32.721Z,19.97
2022-10-02T12:50:50.560Z,20.04
2022-10-02T12:52:08.429Z,20.05
2022-10-02T12:53:26.270Z,20.23
2022-10-02T12:54:44.101Z,20.34
2022-10-02T12:56:00.775Z,20.58
2022-10-02T12:57:18.591Z,20.67
2022-10-02T12:58:36.472Z,20.56
2022-10-02T12:59:56.931Z,20.52
2022-10-02T13:01:13.366Z,20.46
2022-10-02T13:02:56.071Z,20.32
2022-10-02T13:03:53.893Z,20.25
2022-10-02T13:05:11.727Z,20.33
2022-10-02T13:06:29.955Z,20.30
2022-10-02T13:07:48.275Z,20.19
2022-10-02T13:09:06.150Z,20.15
2022-10-02T13:10:23.959Z,20.08
2022-10-02T13:11:41.837Z,20.15
2022-10-02T13:12:59.675Z,20.23
2022-10-02T13:14:17.517Z,20.25
2022-10-02T13:15:36.239Z,20.27
2022-10-02T13:16:54.238Z,20.33
2022-10-02T13:18:12.064Z,20.33
2022-10-02T13:19:29.914Z,20.29
2022-10-02T13:20:47.734Z,20.32
2022-10-02T13:22:05.604Z,20.37
2022-10-02T13:23:23.695Z,20.58
2022-10-02T13:24:42.051Z,20.64
2022-10-02T13:25:59.858Z,20.56
2022-10-02T13:27:17.744Z,20.44
2022-10-02T13:28:35.557Z,20.50
2022-10-02T13:29:53.406Z,20.73
2022-10-02T13:31:11.325Z,20.86
2022-10-02T13:32:29.219Z,20.74
2022-10-02T13:33:47.544Z,20.58
2022-10-02T13:35:05.656Z,20.50
2022-10-02T13:36:23.470Z,20.34
2022-10-02T13:37:41.332Z,20.30
2022-10-02T13:38:59.171Z,20.23
2022-10-02T13:40:17.871Z,20.17
2022-10-02T13:41:36.246Z,20.15
2022-10-02T13:42:54.236Z,20.07
2022-10-02T13:44:12.066Z,19.99
2022-10-02T13:45:29.927Z,19.94
2022-10-02T13:46:47.735Z,19.90
2022-10-02T13:48:04.427Z,19.89
2022-10-02T13:49:22.265Z,19.78
2022-10-02T13:50:38.646Z,19.68
2022-10-02T13:51:56.466Z,19.50
2022-10-02T13:53:14.357Z,19.37
2022-10-02T13:54:32.458Z,19.37
2022-10-02T13:55:50.336Z,19.24
2022-10-02T13:57:08.159Z,19.16
2022-10-02T13:58:26.001Z,19.05
2022-10-02T13:59:42.388Z,19.01
2022-10-02T14:01:00.785Z,18.98
2022-10-02T14:02:18.612Z,18.96
2022-10-02T14:03:36.503Z,18.89
2022-10-02T14:04:54.318Z,18.89
2022-10-02T14:06:12.164Z,18.86
2022-10-02T14:07:28.563Z,18.89
2022-10-02T14:08:46.422Z,18.81
2022-10-02T14:10:04.520Z,18.76
2022-10-02T14:11:23.400Z,18.61
2022-10-02T14:12:41.234Z,18.56
2022-10-02T14:14:02.495Z,18.48
2022-10-02T14:15:21.296Z,18.38
2022-10-02T14:16:39.698Z,18.27
2022-10-02T14:17:56.466Z,18.26
2022-10-02T14:19:14.364Z,18.20
2022-10-02T14:20:30.726Z,18.15
2022-10-02T14:21:48.558Z,18.09
2022-10-02T14:23:06.409Z,18.03
2022-10-02T14:24:24.528Z,17.99
2022-10-02T14:25:42.356Z,17.96
2022-10-02T14:27:00.188Z,17.96
2022-10-02T14:28:16.609Z,17.94
2022-10-02T14:29:34.493Z,17.88
2022-10-02T14:30:51.140Z,17.84
2022-10-02T14:32:09.508Z,17.76
2022-10-02T14:33:27.404Z,17.73
2022-10-02T14:34:45.710Z,17.63
2022-10-02T14:36:03.540Z,17.62
2022-10-02T14:37:21.703Z,17.65
2022-10-02T14:38:39.525Z,17.63
2022-10-02T14:39:56.014Z,17.65
2022-10-02T14:41:13.876Z,17.62
2022-10-02T14:42:31.737Z,17.65
2022-10-02T14:43:49.849Z,17.57
2022-10-02T14:45:07.695Z,17.59
2022-10-02T14:46:24.069Z,17.54
2022-10-02T14:47:41.949Z,17.53
2022-10-02T14:48:59.770Z,17.50
2022-10-02T14:50:17.960Z,17.46
2022-10-02T14:51:34.511Z,17.41
2022-10-02T14:52:52.532Z,17.35
2022-10-02T14:54:10.391Z,17.32
2022-10-02T14:55:28.248Z,17.31
2022-10-02T14:56:44.892Z,17.31
2022-10-02T14:58:02.757Z,17.28
2022-10-02T14:59:20.595Z,17.25
2022-10-02T15:00:38.444Z,17.25
2022-10-02T15:01:54.829Z,17.17
2022-10-02T15:03:12.943Z,17.17
2022-10-02T15:04:30.849Z,17.13
2022-10-02T15:05:48.697Z,17.14
2022-10-02T15:07:06.506Z,17.16
2022-10-02T15:08:24.386Z,17.13
2022-10-02T15:09:42.206Z,17.10
2022-10-02T15:11:00.078Z,17.07
2022-10-02T15:12:17.878Z,17.07
2022-10-02T15:13:35.759Z,17.07
2022-10-02T15:14:53.888Z,17.09
2022-10-02T15:16:11.768Z,17.07
2022-10-02T15:17:29.692Z,17.10
2022-10-02T15:18:47.569Z,17.12
2022-10-02T15:20:05.392Z,17.17
2022-10-02T15:21:23.241Z,17.22
2022-10-02T15:22:47.035Z,17.27
2022-10-02T15:24:04.904Z,17.32
2022-10-02T15:25:22.749Z,17.37
2022-10-02T15:26:40.854Z,17.39
2022-10-02T15:28:12.097Z,17.35
2022-10-02T15:29:21.404Z,17.34
2022-10-02T15:30:39.227Z,17.37
2022-10-02T15:31:55.777Z,17.38
2022-10-02T15:33:12.406Z,17.34
2022-10-02T15:34:30.750Z,17.25
2022-10-02T15:35:48.591Z,17.31
2022-10-02T15:37:06.807Z,17.27
2022-10-02T15:38:24.652Z,17.24
2022-10-02T15:39:42.463Z,17.19
2022-10-02T15:41:00.281Z,17.14
2022-10-02T15:42:18.157Z,17.12
2022-10-02T15:43:35.980Z,17.13
2022-10-02T15:44:54.103Z,17.07
2022-10-02T15:46:11.978Z,17.02
2022-10-02T15:47:29.799Z,17.01
2022-10-02T15:48:51.551Z,16.97
2022-10-02T15:50:10.233Z,16.94
2022-10-02T15:51:26.864Z,16.90
2022-10-02T15:52:43.351Z,16.88
2022-10-02T15:54:01.178Z,16.90
2022-10-02T15:55:20.015Z,16.90
2022-10-02T15:56:38.209Z,16.90
2022-10-02T15:57:56.170Z,16.87
2022-10-02T15:59:13.986Z,16.90
2022-10-02T16:00:31.890Z,16.90
2022-10-02T16:01:49.446Z,16.91
2022-10-02T16:03:07.681Z,16.91
2022-10-02T16:04:25.509Z,16.92
2022-10-02T16:05:43.350Z,16.88
2022-10-02T16:07:01.168Z,16.88
2022-10-02T16:08:19.114Z,16.92
2022-10-02T16:09:37.250Z,16.92
2022-10-02T16:10:53.636Z,16.95
2022-10-02T16:12:11.470Z,16.97
2022-10-02T16:13:29.330Z,16.97
2022-10-02T16:14:47.154Z,16.99
2022-10-02T16:16:03.841Z,16.99
2022-10-02T16:17:21.684Z,16.97
2022-10-02T16:18:39.522Z,16.98
2022-10-02T16:19:57.526Z,16.98
2022-10-02T16:21:15.354Z,16.99
2022-10-02T16:22:33.193Z,16.97
2022-10-02T16:23:51.046Z,16.97
2022-10-02T16:25:08.928Z,16.97
2022-10-02T16:26:26.769Z,16.94
2022-10-02T16:27:43.469Z,16.90
2022-10-02T16:29:01.277Z,16.87
2022-10-02T16:30:19.110Z,16.91
2022-10-02T16:31:37.006Z,16.87
2022-10-02T16:32:54.817Z,16.92
2022-10-02T16:34:11.497Z,16.91
2022-10-02T16:35:29.320Z,16.91
2022-10-02T16:36:47.168Z,16.91
2022-10-02T16:38:04.999Z,16.88
2022-10-02T16:39:22.852Z,16.88